Time;durP1;ratioP1;P1;durP2;ratioP2;P2;SDS_P1;SDS_P2;PMS_P1;PMS_P2;Temp;Humidity;BMP_temperature;BMP_pressure;BME280_temperature;BME280_humidity;BME280_pressure;Samples;Min_cycle;Max_cycle;Signal;HPM_P1;HPM_P2
2021/01/09 00:01:01;;;;;;;24.23;14.57;;;-1.10;99.90;;;;;;5008493;28;20021;-82
2021/01/09 00:03:26;;;;;;;23.50;14.77;;;-1.10;99.90;;;;;;5010503;28;20026;-82
2021/01/09 00:05:53;;;;;;;25.33;14.30;;;-1.10;99.90;;;;;;5008838;28;20030;-82
2021/01/09 00:08:19;;;;;;;24.47;14.17;;;-1.10;99.90;;;;;;5008704;28;20022;-82
2021/01/09 00:10:46;;;;;;;23.20;14.60;;;-1.10;99.90;;;;;;5010019;28;20026;-82
2021/01/09 00:13:12;;;;;;;23.67;14.27;;;-1.00;99.90;;;;;;5010042;28;20022;-82
2021/01/09 00:15:37;;;;;;;23.27;14.80;;;-1.00;99.90;;;;;;5008740;28;20022;-82
2021/01/09 00:18:03;;;;;;;24.10;14.93;;;-1.10;99.90;;;;;;5009938;28;20029;-82
2021/01/09 00:20:28;;;;;;;24.50;14.63;;;-1.10;99.90;;;;;;5010067;28;20094;-82
2021/01/09 00:22:54;;;;;;;27.23;16.57;;;-1.00;99.90;;;;;;5008744;28;20026;-82
2021/01/09 00:25:20;;;;;;;24.73;14.10;;;-1.00;99.90;;;;;;5010001;28;20474;-82
2021/01/09 00:27:45;;;;;;;23.67;14.50;;;-1.00;99.90;;;;;;5010230;28;20065;-82
2021/01/09 00:30:11;;;;;;;21.77;13.67;;;-1.00;99.90;;;;;;5009931;28;20038;-82
2021/01/09 00:32:37;;;;;;;26.77;14.53;;;-1.00;99.90;;;;;;5009835;28;20122;-82
2021/01/09 00:35:07;;;;;;;24.00;13.90;;;-1.00;99.90;;;;;;5009943;28;20458;-82
2021/01/09 00:37:33;;;;;;;19.83;13.87;;;-1.00;99.90;;;;;;5009763;28;20029;-82
2021/01/09 00:39:59;;;;;;;21.37;13.63;;;-1.00;99.90;;;;;;5009905;28;20479;-82
2021/01/09 00:42:25;;;;;;;24.53;14.60;;;-1.10;99.90;;;;;;5009876;28;20037;-82
2021/01/09 00:44:50;;;;;;;23.67;14.30;;;-1.00;99.90;;;;;;5009738;28;20037;-82
2021/01/09 00:47:16;;;;;;;25.03;15.67;;;-1.10;99.90;;;;;;5009960;28;20065;-82
2021/01/09 00:49:41;;;;;;;24.40;15.33;;;-1.10;99.90;;;;;;5009631;28;20035;-81
2021/01/09 00:52:07;;;;;;;25.17;15.23;;;-1.00;99.90;;;;;;5009562;28;20026;-82
2021/01/09 00:54:33;;;;;;;22.30;14.63;;;-1.00;99.90;;;;;;5009869;28;20026;-82
2021/01/09 00:56:58;;;;;;;22.40;14.13;;;-1.00;99.90;;;;;;5009612;28;20026;-82
2021/01/09 00:59:24;;;;;;;20.90;13.47;;;-1.10;99.90;;;;;;5009853;28;20493;-82
2021/01/09 01:01:50;;;;;;;21.23;13.60;;;-1.10;99.90;;;;;;5009805;28;20047;-82
2021/01/09 01:04:16;;;;;;;22.60;14.77;;;-1.10;99.90;;;;;;5009934;28;20029;-82
2021/01/09 01:06:42;;;;;;;22.63;14.60;;;-1.10;99.90;;;;;;5009430;28;20030;-82
2021/01/09 01:09:07;;;;;;;22.23;13.97;;;-1.10;99.90;;;;;;5009602;28;20109;-82
2021/01/09 01:11:33;;;;;;;27.33;14.93;;;-1.10;99.90;;;;;;5009821;28;20021;-82
2021/01/09 01:13:59;;;;;;;25.13;15.10;;;-1.10;99.90;;;;;;5012045;28;20030;-81
2021/01/09 01:16:25;;;;;;;24.53;14.33;;;-1.10;99.90;;;;;;5013020;28;20531;-82
2021/01/09 01:18:51;;;;;;;23.53;14.17;;;-1.10;99.90;;;;;;5012573;28;20079;-82
2021/01/09 01:21:17;;;;;;;23.70;14.40;;;-1.10;99.90;;;;;;5012647;28;20432;-82
2021/01/09 01:23:43;;;;;;;26.00;16.27;;;-1.10;99.90;;;;;;5012895;28;20155;-82
2021/01/09 01:26:09;;;;;;;22.90;14.40;;;-1.10;99.90;;;;;;5012752;28;20029;-82
2021/01/09 01:28:35;;;;;;;25.90;14.87;;;-1.10;99.90;;;;;;5011027;28;20048;-82
2021/01/09 01:31:01;;;;;;;27.47;16.20;;;-1.10;99.90;;;;;;5012612;28;20022;-82
2021/01/09 01:33:26;;;;;;;31.03;17.07;;;-1.10;99.90;;;;;;5012477;28;20038;-82
2021/01/09 01:35:52;;;;;;;27.17;16.33;;;-1.20;99.90;;;;;;5011215;28;20058;-82
2021/01/09 01:38:18;;;;;;;28.47;15.97;;;-1.10;99.90;;;;;;5012453;28;20052;-82
2021/01/09 01:40:43;;;;;;;26.57;15.20;;;-1.20;99.90;;;;;;5012841;28;20079;-82
2021/01/09 01:43:13;;;;;;;25.97;15.87;;;-1.20;99.90;;;;;;5012926;28;20328;-82
2021/01/09 01:45:39;;;;;;;24.80;15.53;;;-1.20;99.90;;;;;;5012616;28;20065;-82
2021/01/09 01:48:07;;;;;;;27.27;16.13;;;-1.20;99.90;;;;;;5012617;28;20029;-82
2021/01/09 01:50:33;;;;;;;27.43;15.87;;;-1.20;99.90;;;;;;5013290;28;20061;-82
2021/01/09 01:53:00;;;;;;;33.40;17.60;;;-1.20;99.90;;;;;;5013766;28;20040;-82
2021/01/09 01:55:27;;;;;;;30.17;17.47;;;-1.20;99.90;;;;;;5013704;28;20079;-82
2021/01/09 01:57:52;;;;;;;27.43;15.20;;;-1.20;99.90;;;;;;5012742;28;20030;-81
2021/01/09 02:00:24;;;;;;;29.10;15.00;;;-1.20;99.90;;;;;;5012428;28;20022;-81
2021/01/09 02:02:59;;;;;;;26.03;15.57;;;-1.20;99.90;;;;;;5012523;28;20048;-81
2021/01/09 02:05:26;;;;;;;;;;;-1.20;99.90;;;;;;5012992;28;20033;-81
2021/01/09 02:07:58;;;;;;;25.73;15.17;;;-1.30;99.90;;;;;;5012327;28;19921;-81
2021/01/09 02:10:25;;;;;;;24.43;15.47;;;-1.30;99.90;;;;;;5012376;28;20037;-79
2021/01/09 02:13:26;;;;;;;25.90;15.40;;;-1.30;99.90;;;;;;5011036;28;20057;-79
2021/01/09 02:15:52;;;;;;;26.93;16.37;;;-1.30;99.90;;;;;;5011913;28;20108;-81
2021/01/09 02:18:19;;;;;;;27.43;16.53;;;-1.30;99.90;;;;;;5012208;28;20026;-82
2021/01/09 02:20:49;;;;;;;24.73;15.07;;;-1.30;99.90;;;;;;5012171;28;20109;-82
2021/01/09 02:23:14;;;;;;;24.53;16.33;;;-1.30;99.90;;;;;;5011980;28;20524;-82
2021/01/09 02:25:40;;;;;;;24.97;15.33;;;-1.30;99.90;;;;;;5012014;28;20026;-82
2021/01/09 02:28:06;;;;;;;26.07;16.03;;;-1.30;99.90;;;;;;5011690;28;20026;-80
2021/01/09 02:30:33;;;;;;;25.03;16.17;;;-1.30;99.90;;;;;;5011549;28;20078;-79
2021/01/09 02:33:13;;;;;;;25.27;15.40;;;-1.30;99.90;;;;;;5011675;28;20038;-82
2021/01/09 02:35:39;;;;;;;25.90;16.53;;;-1.30;99.90;;;;;;5011677;28;20033;-82
2021/01/09 02:38:06;;;;;;;28.03;16.97;;;-1.30;99.90;;;;;;5011791;28;20025;-82
2021/01/09 02:40:38;;;;;;;27.53;16.77;;;-1.30;99.90;;;;;;5011580;28;20030;-82
2021/01/09 02:43:04;;;;;;;30.27;17.00;;;-1.30;99.90;;;;;;5011772;28;20037;-82
2021/01/09 02:45:30;;;;;;;31.77;17.93;;;-1.30;99.90;;;;;;5011512;28;20037;-82
2021/01/09 02:47:55;;;;;;;28.20;16.80;;;-1.30;99.90;;;;;;5011445;28;20136;-82
2021/01/09 02:50:21;;;;;;;26.87;16.10;;;-1.30;99.90;;;;;;5011562;28;20038;-82
2021/01/09 02:52:46;;;;;;;26.97;17.13;;;-1.30;99.90;;;;;;5011376;28;20089;-82
2021/01/09 02:55:12;;;;;;;26.93;16.90;;;-1.30;99.90;;;;;;5011312;28;20108;-82
2021/01/09 02:57:37;;;;;;;27.33;17.27;;;-1.30;99.90;;;;;;5011310;28;20127;-82
2021/01/09 03:00:05;;;;;;;27.50;15.97;;;-1.30;99.90;;;;;;5009847;28;20043;-79
2021/01/09 03:02:30;;;;;;;25.50;15.57;;;-1.30;99.90;;;;;;5011784;28;20087;-80
2021/01/09 03:04:56;;;;;;;26.23;15.67;;;-1.30;99.90;;;;;;5011479;28;20113;-79
2021/01/09 03:07:21;;;;;;;25.53;15.40;;;-1.30;99.90;;;;;;5011081;28;20018;-80
2021/01/09 03:09:47;;;;;;;26.57;16.07;;;-1.30;99.90;;;;;;5010962;28;20021;-80
2021/01/09 03:12:12;;;;;;;24.93;16.03;;;-1.30;99.90;;;;;;5011498;28;20026;-80
2021/01/09 03:14:38;;;;;;;26.40;16.60;;;-1.30;99.90;;;;;;5009787;28;20029;-80
2021/01/09 03:17:03;;;;;;;29.27;16.97;;;-1.30;99.90;;;;;;5010451;28;20018;-80
2021/01/09 03:19:29;;;;;;;27.07;16.83;;;-1.30;99.90;;;;;;5012665;28;20505;-80
2021/01/09 03:21:55;;;;;;;26.20;15.77;;;-1.30;99.90;;;;;;5012622;28;20086;-80
2021/01/09 03:24:21;;;;;;;26.10;15.73;;;-1.30;99.90;;;;;;5011101;28;20026;-80
2021/01/09 03:26:47;;;;;;;27.00;17.43;;;-1.30;99.90;;;;;;5011030;28;20526;-80
2021/01/09 03:29:13;;;;;;;28.90;16.57;;;-1.30;99.90;;;;;;5010740;28;20101;-80
2021/01/09 03:31:38;;;;;;;29.27;17.50;;;-1.30;99.90;;;;;;5010659;28;20475;-80
2021/01/09 03:34:04;;;;;;;29.57;17.97;;;-1.30;99.90;;;;;;5011200;28;20045;-80
2021/01/09 03:36:30;;;;;;;26.77;16.43;;;-1.30;99.90;;;;;;5010497;28;20029;-80
2021/01/09 03:38:55;;;;;;;27.07;17.37;;;-1.30;99.90;;;;;;5009593;28;20113;-80
2021/01/09 03:41:21;;;;;;;26.60;16.50;;;-1.30;99.90;;;;;;5010701;28;20070;-80
2021/01/09 03:43:46;;;;;;;28.47;16.67;;;-1.30;99.90;;;;;;5010662;28;20033;-80
2021/01/09 03:46:12;;;;;;;26.37;16.63;;;-1.30;99.90;;;;;;5010134;28;20022;-80
2021/01/09 03:48:37;;;;;;;27.77;17.10;;;-1.30;99.90;;;;;;5011386;28;20502;-81
2021/01/09 03:51:03;;;;;;;28.97;17.30;;;-1.30;99.90;;;;;;5009328;28;20050;-81
2021/01/09 03:53:29;;;;;;;31.43;17.47;;;-1.30;99.90;;;;;;5010598;28;20528;-81
2021/01/09 03:55:54;;;;;;;27.10;16.90;;;-1.30;99.90;;;;;;5010550;28;20026;-81
2021/01/09 03:58:20;;;;;;;27.00;16.20;;;-1.30;99.90;;;;;;5010660;28;20067;-81
2021/01/09 04:00:45;;;;;;;27.93;16.77;;;-1.30;99.90;;;;;;5010600;28;20369;-81
2021/01/09 04:03:11;;;;;;;25.63;16.50;;;-1.30;99.90;;;;;;5010576;28;20339;-81
2021/01/09 04:05:36;;;;;;;26.10;16.63;;;-1.30;99.90;;;;;;5009174;28;20026;-81
2021/01/09 04:08:02;;;;;;;25.20;15.60;;;-1.30;99.90;;;;;;5010648;28;20026;-81
2021/01/09 04:10:27;;;;;;;28.50;17.03;;;-1.30;99.90;;;;;;5010386;28;20057;-81
2021/01/09 04:12:53;;;;;;;28.80;17.07;;;-1.30;99.90;;;;;;5010313;28;20078;-81
2021/01/09 04:15:19;;;;;;;30.93;18.30;;;-1.30;99.90;;;;;;5010314;28;20026;-81
2021/01/09 04:17:44;;;;;;;29.90;16.63;;;-1.40;99.90;;;;;;5010110;28;20074;-80
2021/01/09 04:20:10;;;;;;;29.73;17.57;;;-1.40;99.90;;;;;;5010215;28;20110;-80
2021/01/09 04:22:36;;;;;;;31.47;17.70;;;-1.40;99.90;;;;;;5010137;28;20024;-81
2021/01/09 04:25:02;;;;;;;30.43;17.37;;;-1.30;99.90;;;;;;5010119;28;20036;-81
2021/01/09 04:27:28;;;;;;;34.53;17.70;;;-1.40;99.90;;;;;;5009919;28;20037;-81
2021/01/09 04:29:53;;;;;;;29.03;17.83;;;-1.40;99.90;;;;;;5010499;28;20022;-81
2021/01/09 04:32:19;;;;;;;29.27;17.20;;;-1.40;99.90;;;;;;5009849;28;20117;-81
2021/01/09 04:34:47;;;;;;;28.67;16.83;;;-1.40;99.90;;;;;;5009941;28;20029;-81
2021/01/09 04:37:13;;;;;;;28.60;17.90;;;-1.40;99.90;;;;;;5009896;28;20466;-81
2021/01/09 04:39:38;;;;;;;28.53;17.60;;;-1.40;99.90;;;;;;5010097;28;20109;-81
2021/01/09 04:42:04;;;;;;;26.63;16.73;;;-1.40;99.90;;;;;;5010009;28;20172;-81
2021/01/09 04:44:30;;;;;;;30.40;18.30;;;-1.40;99.90;;;;;;5009845;28;20030;-81
2021/01/09 04:46:57;;;;;;;28.80;17.47;;;-1.40;99.90;;;;;;5010173;28;20100;-81
2021/01/09 04:49:25;;;;;;;29.70;17.00;;;-1.40;99.90;;;;;;5012987;28;20074;-81
2021/01/09 04:51:52;;;;;;;29.87;17.83;;;-1.40;99.90;;;;;;5013202;28;20026;-81
2021/01/09 04:54:22;;;;;;;32.37;18.47;;;-1.40;99.90;;;;;;5011985;28;20029;-81
2021/01/09 04:56:50;;;;;;;30.80;18.10;;;-1.40;99.90;;;;;;5014001;28;20018;-81
2021/01/09 04:59:19;;;;;;;28.10;17.70;;;-1.40;99.90;;;;;;5013611;28;20025;-81
2021/01/09 05:01:46;;;;;;;31.77;18.97;;;-1.40;99.90;;;;;;5013151;28;20038;-80
2021/01/09 05:04:13;;;;;;;32.87;18.63;;;-1.40;99.90;;;;;;5013080;28;20022;-80
2021/01/09 05:06:39;;;;;;;31.67;18.67;;;-1.40;99.90;;;;;;5012959;28;20029;-80
2021/01/09 05:09:06;;;;;;;29.40;18.33;;;-1.40;99.90;;;;;;5013386;28;20026;-80
2021/01/09 05:11:34;;;;;;;31.47;18.13;;;-1.40;99.90;;;;;;5012898;28;20022;-80
2021/01/09 05:14:01;;;;;;;30.00;17.53;;;-1.40;99.90;;;;;;5012854;28;20093;-81
2021/01/09 05:16:27;;;;;;;31.43;18.57;;;-1.40;99.90;;;;;;5012696;28;20121;-81
2021/01/09 05:18:53;;;;;;;31.03;18.43;;;-1.50;99.90;;;;;;5011965;28;20022;-81
2021/01/09 05:21:19;;;;;;;33.10;18.77;;;-1.50;99.90;;;;;;5012673;28;20075;-80
2021/01/09 05:23:55;;;;;;;29.63;18.33;;;-1.50;99.90;;;;;;5011386;28;20026;-81
2021/01/09 05:26:22;;;;;;;30.07;18.23;;;-1.50;99.90;;;;;;5012707;28;20033;-81
2021/01/09 05:28:51;;;;;;;32.60;17.83;;;-1.50;99.90;;;;;;5012577;28;20053;-80
2021/01/09 05:31:18;;;;;;;28.60;17.70;;;-1.50;99.90;;;;;;5013120;28;20026;-81
2021/01/09 05:33:45;;;;;;;32.50;18.37;;;-1.50;99.90;;;;;;5012492;28;20049;-81
2021/01/09 05:36:11;;;;;;;30.47;17.60;;;-1.50;99.90;;;;;;5012457;28;20109;-81
2021/01/09 05:38:39;;;;;;;35.27;19.60;;;-1.50;99.90;;;;;;5012521;28;20037;-81
2021/01/09 05:41:10;;;;;;;29.23;16.77;;;-1.50;99.90;;;;;;5012540;28;20356;-81
2021/01/09 05:43:35;;;;;;;30.73;18.07;;;-1.60;99.90;;;;;;5012656;28;20030;-81
2021/01/09 05:46:02;;;;;;;31.47;17.77;;;-1.60;99.90;;;;;;5012464;28;20067;-81
2021/01/09 05:48:29;;;;;;;28.60;17.43;;;-1.60;99.90;;;;;;5011080;28;20030;-81
2021/01/09 05:50:57;;;;;;;46.63;18.97;;;-1.60;99.90;;;;;;5012247;28;20030;-81
2021/01/09 05:53:38;;;;;;;32.17;18.83;;;-1.60;99.90;;;;;;5012809;28;20037;-81
2021/01/09 05:56:04;;;;;;;34.37;17.63;;;-1.60;99.90;;;;;;5010887;28;20018;-81
2021/01/09 05:58:31;;;;;;;28.33;17.00;;;-1.60;99.90;;;;;;5011758;28;20033;-80
2021/01/09 06:00:58;;;;;;;30.00;17.73;;;-1.60;99.90;;;;;;5012331;28;20493;-80
2021/01/09 06:03:37;;;;;;;29.43;18.73;;;-1.60;99.90;;;;;;5012182;28;20037;-81
2021/01/09 06:06:26;;;;;;;31.80;18.77;;;-1.60;99.90;;;;;;5012153;28;20037;-81
2021/01/09 06:09:00;;;;;;;37.30;21.03;;;-1.60;99.90;;;;;;5012087;28;20098;-81
2021/01/09 06:11:36;;;;;;;36.33;21.23;;;-1.60;99.90;;;;;;5012005;28;20455;-81
2021/01/09 06:14:04;;;;;;;39.23;23.40;;;-1.60;99.90;;;;;;5012005;28;20034;-81
2021/01/09 06:16:32;;;;;;;37.77;21.20;;;-1.60;99.90;;;;;;5012349;28;20026;-82
2021/01/09 06:18:59;;;;;;;33.13;20.03;;;-1.60;99.90;;;;;;5011970;28;20097;-82
2021/01/09 06:21:29;;;;;;;29.37;18.63;;;-1.50;99.90;;;;;;5011937;28;20022;-82
2021/01/09 06:23:57;;;;;;;32.10;17.07;;;-1.50;99.90;;;;;;5011876;28;20029;-82
2021/01/09 06:26:24;;;;;;;26.63;17.33;;;-1.50;99.90;;;;;;5011658;28;20105;-81
2021/01/09 06:28:58;;;;;;;32.70;19.00;;;-1.50;99.90;;;;;;5011617;28;20114;-81
2021/01/09 06:31:25;;;;;;;30.20;18.00;;;-1.50;99.90;;;;;;5010496;28;20382;-81
2021/01/09 06:33:53;;;;;;;28.90;17.20;;;-1.50;99.90;;;;;;5011379;28;20106;-81
2021/01/09 06:36:20;;;;;;;27.67;16.93;;;-1.50;99.90;;;;;;5011474;28;20032;-82
2021/01/09 06:38:52;;;;;;;30.60;18.13;;;-1.50;99.90;;;;;;5010154;28;20025;-81
2021/01/09 06:41:19;;;;;;;31.17;17.50;;;-1.50;99.90;;;;;;5011961;28;20026;-81
2021/01/09 06:43:48;;;;;;;32.27;18.30;;;-1.50;99.90;;;;;;5010331;28;20377;-81
2021/01/09 06:46:29;;;;;;;30.00;17.63;;;-1.50;99.90;;;;;;5011722;28;20465;-81
2021/01/09 06:48:55;;;;;;;30.73;17.23;;;-1.50;99.90;;;;;;5011273;28;20127;-81
2021/01/09 06:51:39;;;;;;;29.93;18.27;;;-1.50;99.90;;;;;;5011281;28;20109;-81
2021/01/09 06:54:13;;;;;;;30.57;18.97;;;-1.40;99.90;;;;;;5011628;28;20477;-81
2021/01/09 06:56:40;;;;;;;29.10;18.50;;;-1.40;99.90;;;;;;5011242;28;20053;-81
2021/01/09 06:59:05;;;;;;;31.00;19.07;;;-1.40;99.90;;;;;;5011263;28;20075;-81
2021/01/09 07:01:38;;;;;;;29.27;18.70;;;-1.40;99.90;;;;;;5009930;28;20042;-81
2021/01/09 07:04:05;;;;;;;32.20;18.30;;;-1.40;99.90;;;;;;5009785;28;20029;-81
2021/01/09 07:06:58;;;;;;;28.63;16.77;;;-1.40;99.90;;;;;;5011150;28;20053;-81
2021/01/09 07:09:25;;;;;;;30.70;17.93;;;-1.40;99.90;;;;;;5011105;28;20026;-81
2021/01/09 07:11:54;;;;;;;28.07;17.00;;;-1.40;99.90;;;;;;5010280;28;20026;-81
2021/01/09 07:14:20;;;;;;;28.87;17.17;;;-1.40;99.90;;;;;;5011567;28;20026;-81
2021/01/09 07:16:47;;;;;;;29.87;18.97;;;-1.40;99.90;;;;;;5010883;28;20022;-81
2021/01/09 07:19:14;;;;;;;29.63;16.60;;;-1.40;99.90;;;;;;5011311;28;20041;-81
2021/01/09 07:21:40;;;;;;;36.03;22.10;;;-1.30;99.90;;;;;;5010924;28;20102;-81
2021/01/09 07:24:09;;;;;;;74.30;40.27;;;-1.30;99.90;;;;;;5010801;28;20489;-81
2021/01/09 07:26:39;;;;;;;37.13;22.00;;;-1.30;99.90;;;;;;5010717;28;20021;-81
2021/01/09 07:29:05;;;;;;;34.27;20.13;;;-1.30;99.90;;;;;;5009438;28;20104;-81
2021/01/09 07:31:34;;;;;;;28.80;17.77;;;-1.20;99.90;;;;;;5009752;28;20367;-81
2021/01/09 07:34:00;;;;;;;29.33;17.77;;;-1.20;99.90;;;;;;5010765;28;20038;-81
2021/01/09 07:36:27;;;;;;;31.87;18.47;;;-1.20;99.90;;;;;;5010655;28;20029;-81
2021/01/09 07:39:00;;;;;;;27.83;17.40;;;-1.20;99.90;;;;;;5009347;28;20030;-81
2021/01/09 07:41:37;;;;;;;31.20;17.03;;;-1.20;99.90;;;;;;5010728;28;20499;-81
2021/01/09 07:44:16;;;;;;;26.03;16.43;;;-1.20;99.90;;;;;;5010600;28;20105;-81
2021/01/09 07:46:56;;;;;;;27.30;16.70;;;-1.10;99.90;;;;;;5010500;28;20072;-81
2021/01/09 07:49:34;;;;;;;28.70;17.23;;;-1.10;99.90;;;;;;5010516;28;20049;-81
2021/01/09 07:52:00;;;;;;;29.23;17.80;;;-1.10;99.90;;;;;;5010418;28;20097;-81
2021/01/09 07:54:37;;;;;;;27.70;16.73;;;-1.10;99.90;;;;;;5010404;28;20372;-82
2021/01/09 07:57:04;;;;;;;26.63;16.53;;;-1.00;99.90;;;;;;5010374;28;20057;-81
2021/01/09 07:59:30;;;;;;;28.60;16.83;;;-1.00;99.90;;;;;;5010534;28;20046;-81
2021/01/09 08:01:56;;;;;;;32.67;17.63;;;-1.00;99.90;;;;;;5010328;28;20029;-81
2021/01/09 08:04:22;;;;;;;27.17;17.20;;;-1.00;99.90;;;;;;5010253;28;20465;-81
2021/01/09 08:06:47;;;;;;;27.17;16.13;;;-0.90;99.90;;;;;;5010306;28;20441;-81
2021/01/09 08:09:13;;;;;;;28.00;17.60;;;-0.90;99.90;;;;;;5010155;28;20036;-81
2021/01/09 08:11:42;;;;;;;28.83;17.10;;;-0.90;99.90;;;;;;5010190;28;20386;-81
2021/01/09 08:14:07;;;;;;;28.13;17.73;;;-0.90;99.90;;;;;;5010165;28;20459;-81
2021/01/09 08:16:33;;;;;;;29.67;18.50;;;-0.90;99.90;;;;;;5010245;28;20030;-81
2021/01/09 08:19:17;;;;;;;27.60;17.00;;;-0.90;99.90;;;;;;5010174;28;20030;-81
2021/01/09 08:21:52;;;;;;;28.10;16.60;;;-0.80;99.90;;;;;;5010976;28;20029;-81
2021/01/09 08:24:24;;;;;;;25.00;16.52;;;-0.80;99.90;;;;;;5013803;28;20029;-81
2021/01/09 08:26:51;;;;;;;28.47;16.60;;;-0.70;99.90;;;;;;5013490;28;20105;-81
2021/01/09 08:29:17;;;;;;;26.10;16.50;;;-0.70;99.90;;;;;;5013501;28;20025;-81
2021/01/09 08:31:43;;;;;;;27.93;16.73;;;-0.70;99.90;;;;;;5012000;28;20022;-81
2021/01/09 08:34:10;;;;;;;28.43;16.97;;;-0.60;99.90;;;;;;5012236;28;20363;-81
2021/01/09 08:36:36;;;;;;;25.97;15.90;;;-0.60;99.90;;;;;;5013419;28;20097;-81
2021/01/09 08:39:08;;;;;;;30.97;17.40;;;-0.60;99.90;;;;;;5013367;28;20074;-81
2021/01/09 08:41:42;;;;;;;27.23;16.43;;;-0.50;99.90;;;;;;5013460;28;20022;-81
2021/01/09 08:44:12;;;;;;;26.30;16.03;;;-0.50;99.90;;;;;;5011973;28;20030;-81
2021/01/09 08:46:40;;;;;;;27.80;15.67;;;-0.50;99.90;;;;;;5013250;28;20361;-81
2021/01/09 08:49:06;;;;;;;27.00;16.10;;;-0.50;99.90;;;;;;5013140;28;20105;-81
2021/01/09 08:51:34;;;;;;;23.93;15.67;;;-0.40;99.90;;;;;;5013165;28;20018;-81
2021/01/09 08:54:05;;;;;;;24.57;15.23;;;-0.40;99.90;;;;;;5013253;28;20046;-81
2021/01/09 08:56:32;;;;;;;25.93;16.17;;;-0.30;99.90;;;;;;5013186;28;20026;-82
2021/01/09 08:59:06;;;;;;;24.10;14.93;;;-0.20;99.90;;;;;;5013384;28;20456;-82
2021/01/09 09:01:53;;;;;;;26.47;15.70;;;-0.20;99.90;;;;;;5013070;28;20026;-81
2021/01/09 09:04:20;;;;;;;24.13;14.83;;;-0.20;99.90;;;;;;5011744;28;20060;-81
2021/01/09 09:06:53;;;;;;;23.57;15.03;;;-0.10;99.90;;;;;;5012885;28;20030;-81
2021/01/09 09:09:18;;;;;;;21.87;14.50;;;-0.10;99.90;;;;;;5012921;28;20469;-81
2021/01/09 09:11:51;;;;;;;23.33;14.83;;;-0.10;99.90;;;;;;5012857;28;20029;-82
2021/01/09 09:14:17;;;;;;;23.73;15.43;;;0.00;99.90;;;;;;5013610;28;20026;-81
2021/01/09 09:16:43;;;;;;;23.13;14.83;;;0.00;99.90;;;;;;5012779;28;20025;-81
2021/01/09 09:19:12;;;;;;;24.23;14.93;;;0.10;99.90;;;;;;5013120;28;20053;-82
2021/01/09 09:21:41;;;;;;;21.73;13.73;;;0.10;99.90;;;;;;5012727;28;20492;-82
2021/01/09 09:24:07;;;;;;;22.90;14.47;;;0.20;99.90;;;;;;5012675;28;20369;-82
2021/01/09 09:26:34;;;;;;;25.07;15.77;;;0.20;99.90;;;;;;5012665;28;20083;-81
2021/01/09 09:29:00;;;;;;;25.83;16.50;;;0.10;99.90;;;;;;5012575;28;20025;-81
2021/01/09 09:31:28;;;;;;;22.27;13.97;;;0.10;99.90;;;;;;5012744;28;20034;-81
2021/01/09 09:33:54;;;;;;;26.60;15.33;;;0.20;99.90;;;;;;5011493;28;20087;-82
2021/01/09 09:36:20;;;;;;;22.17;14.37;;;0.20;99.90;;;;;;5012646;28;20022;-82
2021/01/09 09:38:45;;;;;;;23.63;14.83;;;0.30;99.90;;;;;;5012618;28;20052;-82
2021/01/09 09:41:11;;;;;;;19.80;13.17;;;0.40;99.90;;;;;;5012529;28;20098;-82
2021/01/09 09:43:37;;;;;;;25.20;15.37;;;0.40;99.90;;;;;;5012827;28;20075;-82
2021/01/09 09:46:07;;;;;;;21.70;13.93;;;0.40;99.90;;;;;;5012333;28;20087;-82
2021/01/09 09:48:42;;;;;;;25.70;15.20;;;0.40;99.90;;;;;;5012604;28;20037;-82
2021/01/09 09:51:12;;;;;;;17.60;11.35;;;0.50;99.90;;;;;;5010987;28;20113;-82
2021/01/09 09:53:40;;;;;;;25.30;14.87;;;0.40;99.90;;;;;;5012564;28;20025;-82
2021/01/09 09:56:19;;;;;;;25.07;14.97;;;0.50;99.90;;;;;;5012430;28;20370;-82
2021/01/09 09:58:46;;;;;;;25.10;15.40;;;0.60;99.90;;;;;;5012284;28;20022;-82
2021/01/09 10:01:15;;;;;;;22.90;13.87;;;0.50;99.90;;;;;;5012296;28;20057;-82
2021/01/09 10:03:41;;;;;;;23.23;15.50;;;0.50;99.90;;;;;;5012147;28;20110;-82
2021/01/09 10:06:07;;;;;;;25.67;15.43;;;0.70;99.90;;;;;;5012022;28;20424;-82
2021/01/09 10:08:32;;;;;;;27.67;16.13;;;0.80;99.90;;;;;;5012135;28;20026;-82
2021/01/09 10:10:58;;;;;;;25.17;16.07;;;0.90;99.90;;;;;;5011969;28;20373;-82
2021/01/09 10:13:28;;;;;;;22.90;14.93;;;0.90;99.90;;;;;;5011950;28;20092;-82
2021/01/09 10:15:57;;;;;;;24.73;15.80;;;1.00;99.90;;;;;;5012263;28;20026;-82
2021/01/09 10:18:28;;;;;;;22.63;15.40;;;0.80;99.90;;;;;;5010501;28;20030;-82
2021/01/09 10:20:54;;;;;;;23.83;16.03;;;0.70;99.90;;;;;;5011892;28;20112;-82
2021/01/09 10:23:19;;;;;;;23.50;16.37;;;0.90;99.90;;;;;;5010565;28;20098;-82
2021/01/09 10:25:46;;;;;;;24.63;16.17;;;1.00;99.90;;;;;;5011760;28;20029;-82
2021/01/09 10:28:11;;;;;;;26.77;17.37;;;1.30;99.90;;;;;;5010391;28;20037;-82
2021/01/09 10:30:37;;;;;;;26.30;17.37;;;1.50;99.90;;;;;;5011546;28;20026;-82
2021/01/09 10:33:03;;;;;;;24.87;16.67;;;1.60;99.90;;;;;;5011522;28;20060;-82
2021/01/09 10:35:29;;;;;;;26.57;19.43;;;1.70;99.90;;;;;;5011622;28;20022;-82
2021/01/09 10:37:54;;;;;;;29.00;18.40;;;1.60;99.90;;;;;;5010272;28;20401;-82
2021/01/09 10:40:20;;;;;;;26.37;18.87;;;1.70;99.90;;;;;;5011649;28;20409;-82
2021/01/09 10:42:46;;;;;;;26.13;18.07;;;1.70;99.90;;;;;;5011993;28;20109;-82
2021/01/09 10:45:15;;;;;;;28.67;18.13;;;1.70;99.90;;;;;;5010047;28;20475;-82
2021/01/09 10:47:41;;;;;;;27.07;17.97;;;1.70;99.90;;;;;;5011336;28;20037;-82
2021/01/09 10:50:08;;;;;;;25.67;17.00;;;1.70;99.90;;;;;;5011486;28;20038;-82
2021/01/09 10:52:33;;;;;;;25.77;17.97;;;1.60;99.90;;;;;;5011267;28;20033;-82
2021/01/09 10:54:59;;;;;;;26.97;17.70;;;1.50;99.90;;;;;;5011465;28;20037;-82
2021/01/09 10:57:25;;;;;;;37.30;31.23;;;1.60;99.90;;;;;;5011163;28;20102;-82
2021/01/09 10:59:50;;;;;;;28.03;18.23;;;1.50;99.90;;;;;;5011147;28;20029;-82
2021/01/09 11:02:16;;;;;;;26.93;18.60;;;1.40;99.90;;;;;;5011128;28;20030;-82
2021/01/09 11:04:42;;;;;;;28.23;19.17;;;1.30;99.90;;;;;;5011877;28;20026;-82
2021/01/09 11:07:07;;;;;;;28.03;18.73;;;1.20;99.90;;;;;;5011280;28;20481;-82
2021/01/09 11:09:33;;;;;;;29.87;20.13;;;1.10;99.90;;;;;;5011035;28;20039;-82
2021/01/09 11:11:58;;;;;;;28.40;19.33;;;1.10;99.90;;;;;;5011069;28;20101;-82
2021/01/09 11:14:24;;;;;;;27.90;19.23;;;1.10;99.90;;;;;;5011058;28;20044;-81
2021/01/09 11:16:57;;;;;;;28.20;18.37;;;1.10;99.90;;;;;;5011125;28;20081;-82
2021/01/09 11:19:22;;;;;;;24.93;17.27;;;1.30;99.90;;;;;;5011057;28;20117;-81
2021/01/09 11:21:48;;;;;;;24.43;15.93;;;1.60;99.90;;;;;;5009770;28;20061;-81
2021/01/09 11:24:13;;;;;;;21.70;13.93;;;1.80;99.90;;;;;;5010858;28;20125;-81
2021/01/09 11:26:39;;;;;;;18.97;13.30;;;1.90;99.90;;;;;;5009584;28;20118;-81
2021/01/09 11:29:05;;;;;;;24.27;15.83;;;1.90;99.90;;;;;;5010658;28;20551;-81
2021/01/09 11:31:30;;;;;;;24.43;16.77;;;1.80;99.90;;;;;;5009526;28;20382;-81
2021/01/09 11:33:56;;;;;;;24.37;16.40;;;1.70;99.90;;;;;;5011771;28;20046;-80
2021/01/09 11:36:21;;;;;;;27.50;17.93;;;1.60;99.90;;;;;;5011970;28;20030;-81
2021/01/09 11:38:47;;;;;;;27.53;18.37;;;1.40;99.90;;;;;;5012560;28;20467;-81
2021/01/09 11:41:14;;;;;;;29.67;19.70;;;1.20;99.90;;;;;;5013614;28;20086;-80
2021/01/09 11:43:44;;;;;;;32.43;20.30;;;1.10;99.90;;;;;;5011042;28;20033;-80
2021/01/09 11:46:10;;;;;;;29.87;19.57;;;1.00;99.90;;;;;;5010752;28;20109;-80
2021/01/09 11:48:36;;;;;;;32.40;22.07;;;0.90;99.90;;;;;;5011162;28;20144;-82
2021/01/09 11:51:02;;;;;;;29.13;19.93;;;0.80;99.90;;;;;;5010223;28;20484;-81
2021/01/09 11:53:28;;;;;;;26.00;17.37;;;0.80;99.90;;;;;;5009338;28;20077;-81
2021/01/09 11:55:54;;;;;;;26.10;16.87;;;0.90;99.90;;;;;;5008419;28;20026;-72
2021/01/09 11:58:20;;;;;;;25.20;17.00;;;1.00;99.90;;;;;;5007514;28;20319;-73
2021/01/09 12:00:46;;;;;;;29.17;18.27;;;1.10;99.90;;;;;;5007869;28;20054;-73
2021/01/09 12:03:12;;;;;;;25.07;16.90;;;1.20;99.90;;;;;;5007774;28;20038;-71
2021/01/09 12:05:38;;;;;;;28.40;20.63;;;1.30;99.90;;;;;;5008547;28;20036;-80
2021/01/09 12:08:04;;;;;;;47.23;31.23;;;1.40;99.90;;;;;;5010398;28;20026;-80
2021/01/09 12:10:31;;;;;;;35.13;27.50;;;1.30;99.90;;;;;;5010119;28;20038;-80
2021/01/09 12:12:57;;;;;;;19.87;15.23;;;1.30;99.90;;;;;;5010098;28;20102;-80
2021/01/09 12:15:22;;;;;;;21.10;14.13;;;1.30;99.90;;;;;;5010265;28;20491;-80
2021/01/09 12:17:48;;;;;;;23.10;15.97;;;1.30;99.90;;;;;;5010097;28;20360;-80
2021/01/09 12:20:14;;;;;;;19.53;14.17;;;1.30;99.90;;;;;;5010312;28;20487;-81
2021/01/09 12:22:39;;;;;;;22.40;15.30;;;1.30;99.90;;;;;;5009857;28;20109;-81
2021/01/09 12:25:06;;;;;;;22.47;15.90;;;1.30;99.90;;;;;;5009842;28;20037;-81
2021/01/09 12:27:31;;;;;;;20.60;14.20;;;1.30;99.90;;;;;;5009576;28;20476;-81
2021/01/09 12:29:57;;;;;;;22.13;15.33;;;1.30;99.90;;;;;;5008487;28;20026;-82
2021/01/09 12:32:23;;;;;;;23.50;15.60;;;1.20;99.90;;;;;;5009380;28;20095;-81